Time;durP1;ratioP1;P1;durP2;ratioP2;P2;SDS_P1;SDS_P2;PMS_P1;PMS_P2;Temp;Humidity;BMP_temperature;BMP_pressure;BME280_temperature;BME280_humidity;BME280_pressure;Samples;Min_cycle;Max_cycle;Signal;HPM_P1;HPM_P2
2023/12/05 00:00:43;;;;;;;6.22;3.97;;;5.40;85.50;;;;;;5053142;28;20037;-60
2023/12/05 00:03:09;;;;;;;5.00;3.97;;;5.40;85.40;;;;;;5046725;28;20037;-61
2023/12/05 00:05:34;;;;;;;6.65;4.35;;;5.40;85.50;;;;;;5039216;28;20032;-61
2023/12/05 00:08:00;;;;;;;7.97;4.95;;;5.40;85.50;;;;;;5036906;28;20044;-61
2023/12/05 00:10:26;;;;;;;5.57;3.95;;;5.40;85.50;;;;;;5037959;28;20040;-61
2023/12/05 00:12:51;;;;;;;5.68;3.83;;;5.40;85.60;;;;;;5050036;28;20029;-61
2023/12/05 00:15:17;;;;;;;6.03;4.40;;;5.40;85.60;;;;;;5051396;28;20037;-59
2023/12/05 00:17:43;;;;;;;4.35;3.58;;;5.40;85.90;;;;;;5057809;28;20047;-59
2023/12/05 00:20:10;;;;;;;5.47;3.83;;;5.40;85.70;;;;;;5045847;28;20033;-60
2023/12/05 00:22:36;;;;;;;5.70;3.65;;;5.40;85.70;;;;;;5046203;28;20037;-60
2023/12/05 00:25:02;;;;;;;5.97;3.75;;;5.30;85.60;;;;;;5044410;28;20049;-60
2023/12/05 00:27:28;;;;;;;8.50;4.72;;;5.30;85.60;;;;;;5048222;28;20144;-61
2023/12/05 00:29:54;;;;;;;5.28;3.95;;;5.30;85.70;;;;;;5037464;28;20120;-61
2023/12/05 00:32:20;;;;;;;7.07;4.68;;;5.40;85.70;;;;;;5046926;28;20041;-61
2023/12/05 00:34:46;;;;;;;6.68;4.38;;;5.40;85.70;;;;;;5054905;28;20051;-61
2023/12/05 00:37:12;;;;;;;8.00;4.95;;;5.40;85.70;;;;;;5045442;28;20021;-60
2023/12/05 00:39:38;;;;;;;6.70;4.00;;;5.40;85.60;;;;;;5054748;28;20479;-61
2023/12/05 00:42:04;;;;;;;7.45;3.67;;;5.40;85.60;;;;;;5053421;28;20162;-61
2023/12/05 00:44:29;;;;;;;7.43;4.20;;;5.40;85.50;;;;;;5054606;28;20021;-60
2023/12/05 00:46:55;;;;;;;5.18;3.13;;;5.40;85.50;;;;;;5058693;28;20471;-59
2023/12/05 00:49:21;;;;;;;4.75;4.03;;;5.40;85.60;;;;;;5061574;28;20414;-59
2023/12/05 00:51:46;;;;;;;5.32;4.00;;;5.30;85.50;;;;;;5053866;28;20568;-59
2023/12/05 00:54:12;;;;;;;5.70;4.03;;;5.40;85.60;;;;;;5046269;28;20398;-60
2023/12/05 00:56:38;;;;;;;5.50;4.10;;;5.40;85.60;;;;;;5055658;28;20037;-61
2023/12/05 00:59:04;;;;;;;6.18;3.83;;;5.40;85.60;;;;;;5059951;28;20028;-59
2023/12/05 01:01:29;;;;;;;7.70;4.40;;;5.40;85.60;;;;;;5048836;28;20514;-61
2023/12/05 01:03:56;;;;;;;6.30;4.13;;;5.40;85.60;;;;;;5051725;28;20032;-61
2023/12/05 01:06:23;;;;;;;4.72;3.30;;;5.40;85.60;;;;;;5049022;28;20144;-61
2023/12/05 01:08:49;;;;;;;9.18;5.07;;;5.40;85.60;;;;;;5057970;28;20037;-60
2023/12/05 01:11:16;;;;;;;4.72;3.17;;;5.40;85.60;;;;;;5055041;28;20048;-61
2023/12/05 01:13:43;;;;;;;6.20;3.90;;;5.40;85.70;;;;;;5058653;28;20021;-61
2023/12/05 01:16:09;;;;;;;8.45;4.05;;;5.40;85.70;;;;;;5056075;28;20687;-61
2023/12/05 01:18:36;;;;;;;8.88;4.68;;;5.40;85.70;;;;;;5049846;28;20081;-61
2023/12/05 01:21:02;;;;;;;6.97;4.30;;;5.40;85.60;;;;;;5048281;28;20032;-59
2023/12/05 01:23:27;;;;;;;7.05;4.65;;;5.40;85.60;;;;;;5050275;28;20080;-60
2023/12/05 01:25:53;;;;;;;7.43;5.28;;;5.40;85.70;;;;;;5051297;28;20040;-60
2023/12/05 01:28:19;;;;;;;6.32;4.82;;;5.40;85.70;;;;;;5052628;28;20028;-59
2023/12/05 01:30:44;;;;;;;6.00;4.47;;;5.40;85.70;;;;;;5052081;28;20036;-59
2023/12/05 01:33:10;;;;;;;6.22;4.50;;;5.40;85.80;;;;;;5054128;28;20191;-59
2023/12/05 01:35:36;;;;;;;7.20;4.70;;;5.40;85.80;;;;;;5049994;28;20029;-59
2023/12/05 01:38:02;;;;;;;6.50;4.82;;;5.40;85.80;;;;;;5052991;28;20378;-61
2023/12/05 01:40:27;;;;;;;7.57;4.85;;;5.30;85.70;;;;;;5048985;28;20041;-61
2023/12/05 01:42:53;;;;;;;7.20;4.03;;;5.40;85.90;;;;;;5048517;28;20084;-61
2023/12/05 01:45:19;;;;;;;6.10;4.10;;;5.40;85.90;;;;;;5053441;28;20038;-59
2023/12/05 01:47:45;;;;;;;6.18;4.20;;;5.40;85.90;;;;;;5061191;28;20040;-59
2023/12/05 01:50:18;;;;;;;9.57;5.28;;;5.30;85.80;;;;;;5058813;28;20025;-60
2023/12/05 01:52:53;;;;;;;6.95;4.57;;;5.30;85.80;;;;;;5051693;28;20028;-60
2023/12/05 01:55:20;;;;;;;10.15;6.10;;;5.30;85.80;;;;;;5055873;28;20033;-60
2023/12/05 01:57:47;;;;;;;7.40;4.75;;;5.30;85.90;;;;;;5050132;28;20033;-59
2023/12/05 02:00:16;;;;;;;7.72;4.72;;;5.40;86.00;;;;;;5056311;28;20028;-59
2023/12/05 02:02:42;;;;;;;6.80;4.63;;;5.30;85.90;;;;;;5057212;28;20567;-59
2023/12/05 02:05:09;;;;;;;8.50;5.63;;;5.30;85.80;;;;;;5047950;28;20091;-61
2023/12/05 02:07:35;;;;;;;6.70;4.85;;;5.30;85.80;;;;;;5048189;28;20107;-61
2023/12/05 02:10:01;;;;;;;6.40;4.35;;;5.40;85.90;;;;;;5050328;28;20414;-61
2023/12/05 02:12:27;;;;;;;9.35;4.55;;;5.40;85.90;;;;;;5053007;28;20037;-61
2023/12/05 02:14:54;;;;;;;6.00;5.03;;;5.40;85.80;;;;;;5054955;28;20032;-61
2023/12/05 02:17:38;;;;;;;7.57;4.97;;;5.40;85.80;;;;;;5059761;28;20067;-61
2023/12/05 02:20:25;;;;;;;5.32;4.47;;;5.50;85.80;;;;;;5064740;28;20025;-61
2023/12/05 02:23:09;;;;;;;6.65;5.18;;;5.40;85.80;;;;;;5059542;28;20036;-61
2023/12/05 02:25:56;;;;;;;6.90;4.32;;;5.50;85.80;;;;;;5055844;28;20035;-61
2023/12/05 02:28:26;;;;;;;7.53;5.63;;;5.50;85.80;;;;;;5054801;28;20036;-61
2023/12/05 02:30:52;;;;;;;10.65;6.35;;;5.40;85.80;;;;;;5058239;28;20032;-61
2023/12/05 02:33:18;;;;;;;7.88;5.07;;;5.40;85.80;;;;;;5060527;28;20479;-60
2023/12/05 02:35:45;;;;;;;9.70;5.40;;;5.40;85.90;;;;;;5038881;28;20086;-61
2023/12/05 02:38:31;;;;;;;7.80;5.20;;;5.40;85.80;;;;;;5055905;28;20036;-60
2023/12/05 02:41:12;;;;;;;7.80;5.53;;;5.50;85.90;;;;;;5063435;28;20496;-61
2023/12/05 02:43:43;;;;;;;7.53;4.68;;;5.50;85.80;;;;;;5048562;28;20484;-61
2023/12/05 02:46:12;;;;;;;9.32;4.95;;;5.40;85.80;;;;;;5059090;28;20139;-59
2023/12/05 02:48:38;;;;;;;4.95;4.22;;;5.40;85.80;;;;;;5052699;28;20511;-60
2023/12/05 02:51:04;;;;;;;6.60;4.35;;;5.40;85.80;;;;;;5060681;28;20022;-60
2023/12/05 02:53:30;;;;;;;9.75;5.18;;;5.40;85.80;;;;;;5056301;28;20483;-60
2023/12/05 02:55:56;;;;;;;8.50;5.45;;;5.40;85.90;;;;;;5053705;28;20044;-59
2023/12/05 02:58:21;;;;;;;5.50;4.00;;;5.40;85.80;;;;;;5056908;28;20551;-60
2023/12/05 03:00:47;;;;;;;8.45;5.10;;;5.40;85.80;;;;;;5056881;28;20114;-59
2023/12/05 03:03:13;;;;;;;6.43;4.50;;;5.40;85.80;;;;;;5057218;28;20036;-59
2023/12/05 03:05:38;;;;;;;6.63;5.30;;;5.40;85.80;;;;;;5058451;28;20270;-59
2023/12/05 03:08:04;;;;;;;9.20;6.32;;;5.40;85.80;;;;;;5060799;28;20152;-59
2023/12/05 03:10:30;;;;;;;7.22;4.43;;;5.40;85.70;;;;;;5057584;28;20061;-60
2023/12/05 03:12:55;;;;;;;5.85;4.13;;;5.40;85.70;;;;;;5058510;28;20253;-60
2023/12/05 03:15:21;;;;;;;6.70;4.95;;;5.30;85.70;;;;;;5059392;28;20120;-60
2023/12/05 03:17:47;;;;;;;7.55;5.15;;;5.30;85.70;;;;;;5055086;28;20102;-59
2023/12/05 03:20:14;;;;;;;8.40;4.13;;;5.30;85.70;;;;;;5051967;28;20120;-59
2023/12/05 03:22:40;;;;;;;10.98;5.65;;;5.30;85.80;;;;;;5056156;28;20490;-60
2023/12/05 03:25:06;;;;;;;6.47;5.30;;;5.30;85.80;;;;;;5057566;28;20307;-61
2023/12/05 03:27:32;;;;;;;10.20;5.90;;;5.20;85.80;;;;;;5052674;28;20025;-61
2023/12/05 03:29:57;;;;;;;7.25;4.63;;;5.20;85.80;;;;;;5054432;28;20037;-61
2023/12/05 03:32:23;;;;;;;6.15;4.30;;;5.20;85.90;;;;;;5047913;28;20048;-61
2023/12/05 03:34:49;;;;;;;7.45;4.53;;;5.20;85.90;;;;;;5053229;28;20021;-61
2023/12/05 03:37:15;;;;;;;6.32;4.40;;;5.20;85.80;;;;;;5060612;28;20018;-59
2023/12/05 03:39:40;;;;;;;7.10;4.60;;;5.20;85.80;;;;;;5050395;28;20454;-61
2023/12/05 03:42:06;;;;;;;7.72;4.90;;;5.20;85.90;;;;;;5053069;28;20411;-61
2023/12/05 03:44:32;;;;;;;7.80;5.20;;;5.20;85.80;;;;;;5054012;28;20115;-61
2023/12/05 03:46:57;;;;;;;6.70;5.30;;;5.20;85.80;;;;;;5056936;28;20028;-61
2023/12/05 03:49:23;;;;;;;7.90;5.10;;;5.30;85.80;;;;;;5053563;28;20039;-61
2023/12/05 03:51:49;;;;;;;8.30;5.57;;;5.30;85.70;;;;;;5052829;28;20033;-59
2023/12/05 03:54:15;;;;;;;8.38;5.25;;;5.30;85.70;;;;;;5052498;28;20419;-59
2023/12/05 03:56:41;;;;;;;4.43;3.97;;;5.30;85.70;;;;;;5060309;28;20064;-61
2023/12/05 03:59:07;;;;;;;6.07;4.50;;;5.30;85.70;;;;;;5050183;28;20493;-61
2023/12/05 04:01:32;;;;;;;9.55;4.57;;;5.30;85.70;;;;;;5053452;28;20037;-61
2023/12/05 04:03:58;;;;;;;6.47;4.47;;;5.30;85.70;;;;;;5060250;28;20028;-61
2023/12/05 04:06:24;;;;;;;8.43;4.70;;;5.30;85.60;;;;;;5053421;28;20116;-61
2023/12/05 04:08:50;;;;;;;8.20;4.90;;;5.30;85.70;;;;;;5058251;28;20491;-61
2023/12/05 04:11:16;;;;;;;9.23;5.75;;;5.30;85.60;;;;;;5063828;28;20036;-61
2023/12/05 04:13:42;;;;;;;5.72;4.72;;;5.30;85.60;;;;;;5052604;28;20033;-61
2023/12/05 04:16:09;;;;;;;7.50;5.15;;;5.30;85.60;;;;;;5051233;28;20480;-61
2023/12/05 04:18:35;;;;;;;6.95;4.43;;;5.30;85.60;;;;;;5049043;28;20041;-61
2023/12/05 04:21:01;;;;;;;7.97;5.45;;;5.30;85.60;;;;;;5049485;28;20396;-61
2023/12/05 04:23:26;;;;;;;8.30;4.55;;;5.30;85.60;;;;;;5051195;28;20518;-60
2023/12/05 04:25:52;;;;;;;6.80;4.95;;;5.30;85.60;;;;;;5054515;28;20029;-61
2023/12/05 04:28:18;;;;;;;7.38;4.78;;;5.30;85.50;;;;;;5059346;28;20049;-61
2023/12/05 04:30:44;;;;;;;6.70;4.18;;;5.30;85.50;;;;;;5055394;28;20388;-61
2023/12/05 04:33:10;;;;;;;8.23;5.28;;;5.30;85.60;;;;;;5048210;28;20033;-61
2023/12/05 04:35:36;;;;;;;6.82;4.35;;;5.30;85.60;;;;;;5055161;28;20036;-61
2023/12/05 04:38:01;;;;;;;7.13;4.70;;;5.30;85.60;;;;;;5052903;28;20033;-61
2023/12/05 04:40:27;;;;;;;7.72;4.50;;;5.30;85.70;;;;;;5049349;28;20056;-59
2023/12/05 04:42:53;;;;;;;8.27;5.10;;;5.30;85.70;;;;;;5047410;28;20121;-59
2023/12/05 04:45:19;;;;;;;6.28;4.85;;;5.30;85.70;;;;;;5051465;28;20079;-59
2023/12/05 04:47:45;;;;;;;10.27;5.25;;;5.30;85.70;;;;;;5055893;28;20029;-59
2023/12/05 04:50:11;;;;;;;10.27;5.80;;;5.30;85.70;;;;;;5056237;28;20419;-59
2023/12/05 04:52:36;;;;;;;7.13;4.88;;;5.30;85.70;;;;;;5060109;28;20028;-59
2023/12/05 04:55:02;;;;;;;7.65;4.63;;;5.30;85.70;;;;;;5054164;28;20032;-59
2023/12/05 04:57:28;;;;;;;7.50;4.53;;;5.30;85.70;;;;;;5056138;28;20109;-60
2023/12/05 04:59:54;;;;;;;9.30;5.20;;;5.30;85.80;;;;;;5046806;28;20047;-60
2023/12/05 05:02:19;;;;;;;6.80;4.47;;;5.30;85.70;;;;;;5057305;28;20029;-60
2023/12/05 05:04:45;;;;;;;7.50;4.82;;;5.30;85.70;;;;;;5047437;28;20037;-61
2023/12/05 05:07:11;;;;;;;10.43;5.65;;;5.30;85.70;;;;;;5048498;28;20037;-59
2023/12/05 05:09:39;;;;;;;6.80;4.57;;;5.30;86.20;;;;;;5053267;28;20464;-59
2023/12/05 05:12:08;;;;;;;8.98;5.05;;;5.30;85.60;;;;;;5057493;28;20047;-59
2023/12/05 05:14:36;;;;;;;6.68;4.00;;;5.30;85.70;;;;;;5045024;28;20028;-59
2023/12/05 05:17:07;;;;;;;6.57;4.25;;;5.30;85.70;;;;;;5040136;28;20553;-59
2023/12/05 05:19:33;;;;;;;8.20;4.57;;;5.30;85.60;;;;;;5057586;28;20057;-60
2023/12/05 05:21:59;;;;;;;7.65;4.28;;;5.30;85.60;;;;;;5062947;28;20475;-59
2023/12/05 05:24:25;;;;;;;6.63;4.57;;;5.30;85.70;;;;;;5057552;28;20049;-59
2023/12/05 05:26:51;;;;;;;6.93;4.40;;;5.30;85.60;;;;;;5043545;28;20511;-59
2023/12/05 05:29:17;;;;;;;5.88;4.10;;;5.30;85.70;;;;;;5053137;28;20491;-60
2023/12/05 05:31:42;;;;;;;5.60;3.83;;;5.30;85.80;;;;;;5050301;28;20433;-60
2023/12/05 05:34:08;;;;;;;8.95;5.15;;;5.20;85.70;;;;;;5047624;28;20079;-60
2023/12/05 05:36:34;;;;;;;7.00;4.47;;;5.30;85.80;;;;;;5052244;28;20096;-59
2023/12/05 05:39:00;;;;;;;6.80;4.47;;;5.20;85.80;;;;;;5052958;28;20029;-60
2023/12/05 05:41:26;;;;;;;6.25;4.07;;;5.20;85.80;;;;;;5051372;28;20021;-59
2023/12/05 05:43:52;;;;;;;6.75;4.45;;;5.20;85.90;;;;;;5053768;28;20507;-60
2023/12/05 05:46:17;;;;;;;7.18;4.07;;;5.20;85.80;;;;;;5055979;28;20036;-61
2023/12/05 05:48:43;;;;;;;6.80;4.47;;;5.30;85.90;;;;;;5052704;28;20032;-61
2023/12/05 05:51:09;;;;;;;8.38;4.88;;;5.30;85.80;;;;;;5055888;28;20111;-59
2023/12/05 05:53:35;;;;;;;7.60;4.10;;;5.30;85.70;;;;;;5060224;28;20056;-60
2023/12/05 05:56:01;;;;;;;8.02;3.85;;;5.30;85.70;;;;;;5051387;28;20419;-61
2023/12/05 05:58:27;;;;;;;7.38;5.35;;;5.30;85.70;;;;;;5052990;28;20559;-59
2023/12/05 06:00:53;;;;;;;7.25;4.78;;;5.30;85.80;;;;;;5052239;28;20033;-60
2023/12/05 06:03:19;;;;;;;8.43;4.85;;;5.30;85.80;;;;;;5059687;28;20033;-59
2023/12/05 06:05:44;;;;;;;8.35;5.38;;;5.30;85.90;;;;;;5053441;28;20381;-59
2023/12/05 06:08:10;;;;;;;7.15;4.97;;;5.30;85.70;;;;;;5048107;28;20108;-59
2023/12/05 06:10:36;;;;;;;10.23;5.28;;;5.30;85.70;;;;;;5055398;28;20029;-59
2023/12/05 06:13:02;;;;;;;5.45;4.47;;;5.20;85.70;;;;;;5061574;28;20036;-59
2023/12/05 06:15:27;;;;;;;8.32;4.95;;;5.20;85.80;;;;;;5054231;28;20124;-59
2023/12/05 06:17:55;;;;;;;6.72;4.45;;;5.20;86.40;;;;;;5047000;28;20104;-59
2023/12/05 06:20:22;;;;;;;5.35;4.28;;;5.30;85.80;;;;;;5059595;28;20124;-59
2023/12/05 06:22:47;;;;;;;8.00;4.57;;;5.30;85.80;;;;;;5061867;28;20517;-59
2023/12/05 06:25:13;;;;;;;5.93;4.22;;;5.30;85.70;;;;;;5050868;28;20045;-59
2023/12/05 06:27:39;;;;;;;6.28;4.22;;;5.30;85.70;;;;;;5047325;28;20033;-59
2023/12/05 06:30:05;;;;;;;6.45;4.10;;;5.30;85.80;;;;;;5052881;28;20107;-58
2023/12/05 06:32:31;;;;;;;6.57;4.00;;;5.30;85.70;;;;;;5054294;28;20434;-59
2023/12/05 06:34:56;;;;;;;6.72;4.18;;;5.30;85.70;;;;;;5055555;28;20059;-59
2023/12/05 06:37:22;;;;;;;4.97;3.83;;;5.40;85.80;;;;;;5055596;28;20032;-61
2023/12/05 06:39:48;;;;;;;4.45;3.60;;;5.30;85.60;;;;;;5049771;28;20369;-61
2023/12/05 06:42:13;;;;;;;7.90;4.20;;;5.30;85.70;;;;;;5051606;28;20063;-60
2023/12/05 06:44:39;;;;;;;7.00;3.88;;;5.40;85.70;;;;;;5055116;28;20033;-61
2023/12/05 06:47:05;;;;;;;5.78;4.82;;;5.40;85.70;;;;;;5054420;28;20412;-61
2023/12/05 06:49:30;;;;;;;6.47;4.35;;;5.40;85.70;;;;;;5054592;28;20037;-60
2023/12/05 06:51:57;;;;;;;6.60;4.20;;;5.40;85.70;;;;;;5055798;28;20450;-60
2023/12/05 06:54:23;;;;;;;5.22;3.20;;;5.40;85.70;;;;;;5050480;28;20099;-60
2023/12/05 06:56:49;;;;;;;5.78;3.95;;;5.40;85.70;;;;;;5049286;28;20441;-59
2023/12/05 06:59:15;;;;;;;6.72;4.45;;;5.40;85.60;;;;;;5050210;28;20029;-59
2023/12/05 07:01:41;;;;;;;7.90;5.35;;;5.40;85.70;;;;;;5059255;28;20361;-59
2023/12/05 07:04:07;;;;;;;9.98;5.18;;;5.40;85.80;;;;;;5057716;28;20037;-59
2023/12/05 07:06:33;;;;;;;6.93;4.47;;;5.40;85.70;;;;;;5050845;28;20411;-59
2023/12/05 07:08:59;;;;;;;7.47;3.83;;;5.40;85.60;;;;;;5056120;28;20025;-59
2023/12/05 07:11:25;;;;;;;6.18;4.18;;;5.30;85.60;;;;;;5060077;28;20059;-59
2023/12/05 07:13:53;;;;;;;5.85;4.32;;;5.30;85.70;;;;;;5054542;28;20025;-59
2023/12/05 07:16:19;;;;;;;10.70;5.55;;;5.30;85.70;;;;;;5046835;28;20061;-59
2023/12/05 07:18:44;;;;;;;5.53;4.20;;;5.30;85.70;;;;;;5052095;28;20056;-59
2023/12/05 07:21:10;;;;;;;7.50;3.95;;;5.30;85.70;;;;;;5054781;28;20033;-59
2023/12/05 07:23:36;;;;;;;8.13;5.10;;;5.30;85.70;;;;;;5054453;28;20064;-60
2023/12/05 07:26:02;;;;;;;9.68;5.18;;;5.30;85.70;;;;;;5052903;28;20037;-59
2023/12/05 07:28:28;;;;;;;9.30;5.05;;;5.30;85.80;;;;;;5050695;28;20115;-59
2023/12/05 07:30:54;;;;;;;8.23;4.68;;;5.30;85.80;;;;;;5055320;28;20119;-59
2023/12/05 07:33:20;;;;;;;7.32;5.13;;;5.30;85.70;;;;;;5050581;28;20387;-59
2023/12/05 07:35:46;;;;;;;8.05;5.40;;;5.30;85.70;;;;;;5057667;28;20036;-59
2023/12/05 07:38:12;;;;;;;7.97;4.93;;;5.30;85.70;;;;;;5063202;28;20024;-61
2023/12/05 07:40:38;;;;;;;5.35;4.30;;;5.30;85.70;;;;;;5058444;28;20033;-61
2023/12/05 07:43:03;;;;;;;9.23;6.00;;;5.30;85.70;;;;;;5057126;28;20037;-59
2023/12/05 07:45:29;;;;;;;9.50;5.85;;;5.30;85.60;;;;;;5055692;28;20071;-61
2023/12/05 07:47:55;;;;;;;8.65;5.38;;;5.30;85.60;;;;;;5060671;28;20067;-61
2023/12/05 07:50:21;;;;;;;8.35;4.97;;;5.30;85.60;;;;;;5059101;28;20025;-61
2023/12/05 07:52:51;;;;;;;7.47;5.63;;;5.30;85.60;;;;;;5051560;28;20102;-61
2023/12/05 07:55:20;;;;;;;10.48;6.65;;;5.30;85.60;;;;;;5054141;28;20115;-61
2023/12/05 07:57:47;;;;;;;8.95;5.88;;;5.30;85.60;;;;;;5044679;28;20381;-60
2023/12/05 08:00:17;;;;;;;9.48;5.90;;;5.30;85.60;;;;;;5056039;28;20036;-61
2023/12/05 08:02:43;;;;;;;9.00;6.53;;;5.30;85.70;;;;;;5049123;28;20048;-61
2023/12/05 08:05:12;;;;;;;14.65;6.43;;;5.30;85.70;;;;;;5042881;28;20025;-61
2023/12/05 08:07:39;;;;;;;9.80;5.95;;;5.30;85.70;;;;;;5052313;28;20025;-61
2023/12/05 08:10:10;;;;;;;11.07;6.18;;;5.30;85.60;;;;;;5049938;28;20100;-60
2023/12/05 08:12:36;;;;;;;8.77;6.17;;;5.30;85.60;;;;;;5049200;28;20017;-60
2023/12/05 08:15:03;;;;;;;9.63;6.32;;;5.30;85.60;;;;;;5054260;28;20032;-59
2023/12/05 08:17:29;;;;;;;8.85;5.63;;;5.30;85.60;;;;;;5051399;28;20479;-60
2023/12/05 08:19:55;;;;;;;8.45;4.90;;;5.30;85.60;;;;;;5057466;28;20025;-59
2023/12/05 08:22:21;;;;;;;11.00;6.53;;;5.30;85.60;;;;;;5045688;28;20060;-59
2023/12/05 08:24:48;;;;;;;10.13;5.10;;;5.30;85.70;;;;;;5044284;28;20045;-62
2023/12/05 08:27:13;;;;;;;9.55;6.13;;;5.30;85.70;;;;;;5053232;28;20513;-62
2023/12/05 08:29:39;;;;;;;9.02;6.05;;;5.30;85.60;;;;;;5051200;28;20052;-62
2023/12/05 08:32:07;;;;;;;8.60;5.15;;;5.30;85.60;;;;;;5052482;28;20111;-62
2023/12/05 08:34:33;;;;;;;9.18;6.05;;;5.40;85.60;;;;;;5052843;28;20052;-62
2023/12/05 08:36:59;;;;;;;9.18;5.32;;;5.30;85.50;;;;;;5057142;28;20064;-61
2023/12/05 08:39:24;;;;;;;7.68;5.15;;;5.40;85.60;;;;;;5049736;28;20414;-61
2023/12/05 08:41:51;;;;;;;9.73;5.47;;;5.30;85.50;;;;;;5061275;28;20044;-62
2023/12/05 08:44:17;;;;;;;11.65;6.35;;;5.30;85.60;;;;;;5050741;28;20037;-62
2023/12/05 08:46:42;;;;;;;8.23;4.97;;;5.30;85.70;;;;;;5054592;28;20261;-61
2023/12/05 08:49:08;;;;;;;11.27;5.30;;;5.30;85.80;;;;;;5054614;28;20479;-61
2023/12/05 08:51:34;;;;;;;9.80;5.40;;;5.30;85.80;;;;;;5048102;28;20460;-61
2023/12/05 08:53:59;;;;;;;6.25;4.82;;;5.30;85.80;;;;;;5047470;28;20150;-62
2023/12/05 08:56:25;;;;;;;9.57;5.70;;;5.30;85.80;;;;;;5047964;28;20053;-61
2023/12/05 08:58:51;;;;;;;10.07;6.55;;;5.30;85.90;;;;;;5049198;28;20245;-62
2023/12/05 09:01:17;;;;;;;7.35;3.83;;;5.30;85.80;;;;;;5037266;28;20415;-62
2023/12/05 09:03:42;;;;;;;6.40;5.32;;;5.30;85.90;;;;;;5046300;28;20037;-61
2023/12/05 09:06:09;;;;;;;8.15;5.75;;;5.30;85.90;;;;;;5049606;28;20087;-62
2023/12/05 09:08:34;;;;;;;8.27;5.80;;;5.30;85.80;;;;;;5052261;28;20032;-61
2023/12/05 09:11:00;;;;;;;7.95;5.05;;;5.30;85.80;;;;;;5054320;28;20399;-62
2023/12/05 09:13:26;;;;;;;11.90;4.93;;;5.40;85.80;;;;;;5054121;28;20082;-62
2023/12/05 09:15:52;;;;;;;10.70;6.03;;;5.40;85.80;;;;;;5049583;28;20032;-62
2023/12/05 09:18:17;;;;;;;7.50;4.97;;;5.30;85.80;;;;;;5052589;28;20120;-61
2023/12/05 09:20:43;;;;;;;7.63;5.00;;;5.30;86.00;;;;;;5057191;28;20055;-61
2023/12/05 09:23:08;;;;;;;8.80;4.97;;;5.30;86.00;;;;;;5055260;28;20399;-61
2023/12/05 09:25:34;;;;;;;7.55;5.03;;;5.40;86.00;;;;;;5011560;28;1146073;-61
2023/12/05 09:28:00;;;;;;;9.48;5.80;;;5.40;85.90;;;;;;5055257;28;20594;-61
2023/12/05 09:30:26;;;;;;;8.73;5.00;;;5.40;85.90;;;;;;5043706;28;20033;-60
2023/12/05 09:32:52;;;;;;;6.40;4.30;;;5.40;85.90;;;;;;5048547;28;20082;-60
2023/12/05 09:35:17;;;;;;;6.25;3.88;;;5.50;85.80;;;;;;5053815;28;20033;-60
2023/12/05 09:37:43;;;;;;;10.00;5.65;;;5.50;85.80;;;;;;5050865;28;20388;-60
2023/12/05 09:40:09;;;;;;;7.93;4.15;;;5.50;85.80;;;;;;5051287;28;20030;-60
2023/12/05 09:42:38;;;;;;;8.45;4.35;;;5.50;85.80;;;;;;5048897;28;20024;-60
2023/12/05 09:45:06;;;;;;;8.85;4.13;;;5.40;85.70;;;;;;5055385;28;20025;-60
2023/12/05 09:47:32;;;;;;;7.97;4.85;;;5.40;85.80;;;;;;5052831;28;20025;-60
2023/12/05 09:49:58;;;;;;;6.53;5.45;;;5.40;85.80;;;;;;5047755;28;20051;-60
2023/12/05 09:52:26;;;;;;;8.88;5.07;;;5.30;85.80;;;;;;5054321;28;20029;-60
2023/12/05 09:54:53;;;;;;;7.35;4.95;;;5.30;85.90;;;;;;5054451;28;20033;-60
2023/12/05 09:57:19;;;;;;;9.52;5.90;;;5.30;86.10;;;;;;5046531;28;20059;-60
2023/12/05 09:59:45;;;;;;;7.82;4.97;;;5.40;86.10;;;;;;5046993;28;20095;-60
2023/12/05 10:02:13;;;;;;;6.43;4.65;;;5.40;86.00;;;;;;5051978;28;20049;-60
2023/12/05 10:04:44;;;;;;;7.85;4.85;;;5.40;86.00;;;;;;5047967;28;20117;-60
2023/12/05 10:07:13;;;;;;;6.70;4.10;;;5.40;85.90;;;;;;5058278;28;20470;-60
2023/12/05 10:09:43;;;;;;;7.75;5.13;;;5.50;85.90;;;;;;5063742;28;20020;-61
2023/12/05 10:12:10;;;;;;;7.03;4.97;;;5.40;85.70;;;;;;5061231;28;20119;-60
2023/12/05 10:14:37;;;;;;;7.78;5.35;;;5.40;85.90;;;;;;5050596;28;20108;-59
2023/12/05 10:17:05;;;;;;;7.88;4.47;;;5.40;85.90;;;;;;5057582;28;20041;-59
2023/12/05 10:19:31;;;;;;;8.98;5.32;;;5.40;85.90;;;;;;5052594;28;20476;-60
2023/12/05 10:21:57;;;;;;;8.02;5.22;;;5.40;85.80;;;;;;5049921;28;20068;-61
2023/12/05 10:24:23;;;;;;;8.60;5.45;;;5.40;85.80;;;;;;5059661;28;20051;-62
2023/12/05 10:26:49;;;;;;;8.40;5.97;;;5.40;85.90;;;;;;5050425;28;20025;-61
2023/12/05 10:29:16;;;;;;;5.68;3.58;;;5.40;85.90;;;;;;5055230;28;20131;-62
2023/12/05 10:31:42;;;;;;;12.43;4.97;;;5.40;85.90;;;;;;5050862;28;20104;-62
2023/12/05 10:34:08;;;;;;;7.88;5.55;;;5.50;86.00;;;;;;5034509;28;20087;-62
2023/12/05 10:36:36;;;;;;;9.32;5.35;;;5.50;85.90;;;;;;5048616;28;20436;-61
2023/12/05 10:39:03;;;;;;;8.80;5.00;;;5.50;85.90;;;;;;5042597;28;20067;-62
2023/12/05 10:41:29;;;;;;;7.53;4.82;;;5.50;85.90;;;;;;5030443;28;20055;-62
2023/12/05 10:43:56;;;;;;;9.77;5.70;;;5.50;85.90;;;;;;5043038;28;20033;-60
2023/12/05 10:46:26;;;;;;;9.20;6.65;;;5.60;85.90;;;;;;5060302;28;20061;-61
2023/12/05 10:48:52;;;;;;;7.40;4.60;;;5.60;85.90;;;;;;5045974;28;20117;-61
2023/12/05 10:51:18;;;;;;;9.68;5.82;;;5.60;85.80;;;;;;5037854;28;20115;-60
2023/12/05 10:53:43;;;;;;;8.13;4.95;;;5.60;85.70;;;;;;5042088;28;20102;-61
2023/12/05 10:56:13;;;;;;;10.70;6.18;;;5.60;85.80;;;;;;5048443;28;20035;-61
2023/12/05 10:58:42;;;;;;;9.90;6.20;;;5.60;85.90;;;;;;5040932;28;20024;-61
2023/12/05 11:01:13;;;;;;;10.15;5.40;;;5.50;85.90;;;;;;5039961;28;20111;-60
2023/12/05 11:03:39;;;;;;;11.50;6.03;;;5.50;85.90;;;;;;5032900;28;20696;-61
2023/12/05 11:06:07;;;;;;;10.45;5.82;;;5.60;85.90;;;;;;5032179;28;20025;-61
2023/12/05 11:08:33;;;;;;;10.02;6.07;;;5.60;85.90;;;;;;5046125;28;20028;-61
2023/12/05 11:11:02;;;;;;;8.32;5.72;;;5.60;85.70;;;;;;5051267;28;20036;-62
2023/12/05 11:13:31;;;;;;;9.38;6.18;;;5.60;85.70;;;;;;5046825;28;20043;-62
2023/12/05 11:16:20;;;;;;;9.95;6.38;;;5.70;85.80;;;;;;5030142;28;20045;-62
2023/12/05 11:18:54;;;;;;;11.38;6.35;;;5.60;85.60;;;;;;5040052;28;20511;-62
2023/12/05 11:22:21;;;;;;;9.27;5.63;;;5.60;85.60;;;;;;5040075;28;20101;-62
2023/12/05 11:24:50;;;;;;;9.15;6.20;;;5.60;85.60;;;;;;5030892;28;20049;-61
2023/12/05 11:27:34;;;;;;;9.98;5.97;;;5.60;85.80;;;;;;5029637;28;20309;-61
2023/12/05 11:30:28;;;;;;;10.15;5.93;;;5.60;85.80;;;;;;5051564;28;20239;-62
2023/12/05 11:33:20;;;;;;;9.88;5.45;;;5.60;85.80;;;;;;5045999;28;20067;-62
2023/12/05 11:36:24;;;;;;;10.68;5.95;;;5.60;85.70;;;;;;5047055;28;20112;-60
2023/12/05 11:38:50;;;;;;;8.25;5.10;;;5.60;85.70;;;;;;5035507;28;20052;-60
2023/12/05 11:41:17;;;;;;;8.65;6.40;;;5.60;85.80;;;;;;5047526;28;20064;-62
2023/12/05 11:44:08;;;;;;;9.70;6.25;;;5.60;85.80;;;;;;5049143;28;20056;-62
2023/12/05 11:46:35;;;;;;;10.30;4.72;;;5.60;85.70;;;;;;5045497;28;20210;-60
2023/12/05 11:49:02;;;;;;;10.30;5.32;;;5.60;85.70;;;;;;5047589;28;20025;-61
2023/12/05 11:51:30;;;;;;;10.13;5.28;;;5.60;85.70;;;;;;5041063;28;20120;-61
2023/12/05 11:53:56;;;;;;;9.90;4.97;;;5.60;85.60;;;;;;5048590;28;20278;-60
2023/12/05 11:56:22;;;;;;;6.47;4.28;;;5.60;85.70;;;;;;5045666;28;20495;-60
2023/12/05 11:58:47;;;;;;;12.73;4.85;;;5.60;85.70;;;;;;5053376;28;20107;-60
2023/12/05 12:01:14;;;;;;;7.57;4.22;;;5.60;85.80;;;;;;5047905;28;20029;-60
2023/12/05 12:03:47;;;;;;;6.03;4.53;;;5.50;85.70;;;;;;5051195;28;20028;-60
2023/12/05 12:06:24;;;;;;;6.30;4.18;;;5.60;85.70;;;;;;5048003;28;20037;-60
2023/12/05 12:08:53;;;;;;;10.23;4.85;;;5.60;85.60;;;;;;5059410;28;20074;-60
2023/12/05 12:11:22;;;;;;;10.57;4.80;;;5.60;85.60;;;;;;5057558;28;20033;-60
2023/12/05 12:13:49;;;;;;;8.77;5.53;;;5.60;85.60;;;;;;5061636;28;20037;-62
2023/12/05 12:16:17;;;;;;;8.50;5.22;;;5.60;85.50;;;;;;5053509;28;20384;-62
2023/12/05 12:18:43;;;;;;;8.48;5.28;;;5.60;85.40;;;;;;5052953;28;20040;-60
2023/12/05 12:21:09;;;;;;;7.63;4.95;;;5.60;85.40;;;;;;5045749;28;20033;-60
2023/12/05 12:23:34;;;;;;;32.42;8.13;;;5.50;85.40;;;;;;5057027;28;20701;-60
2023/12/05 12:26:01;;;;;;;10.38;5.70;;;5.60;85.60;;;;;;5043797;28;20156;-60
2023/12/05 12:28:29;;;;;;;9.90;6.97;;;5.60;85.60;;;;;;5049214;28;20036;-60
2023/12/05 12:30:59;;;;;;;13.25;7.13;;;5.50;85.50;;;;;;5046984;28;20021;-61
2023/12/05 12:33:41;;;;;;;13.38;6.25;;;5.50;85.50;;;;;;5049462;28;20082;-62
2023/12/05 12:36:09;;;;;;;10.38;5.65;;;5.50;85.30;;;;;;5052930;28;20390;-62
2023/12/05 12:38:36;;;;;;;9.63;5.38;;;5.50;85.60;;;;;;5048074;28;20031;-62
2023/12/05 12:41:02;;;;;;;10.85;6.75;;;5.40;85.60;;;;;;5051932;28;20024;-62
2023/12/05 12:43:29;;;;;;;11.52;5.80;;;5.40;85.60;;;;;;5047199;28;20147;-62
2023/12/05 12:45:55;;;;;;;10.98;6.45;;;5.30;85.70;;;;;;5057275;28;20040;-61
2023/12/05 12:48:20;;;;;;;10.48;7.18;;;5.40;85.90;;;;;;5055861;28;20029;-62
2023/12/05 12:50:47;;;;;;;11.13;6.60;;;5.40;85.70;;;;;;5049726;28;20044;-62
2023/12/05 12:53:12;;;;;;;13.95;8.43;;;5.40;85.70;;;;;;5046932;28;20075;-62
2023/12/05 12:55:39;;;;;;;11.50;7.32;;;5.40;85.80;;;;;;5048048;28;20067;-61